createdAt,value
2018-09-20T00:00:18.929Z,20.20
2018-09-20T00:00:54.385Z,21.20
2018-09-20T00:01:29.818Z,22.50
2018-09-20T00:02:05.244Z,22.50
2018-09-20T00:02:40.871Z,20.70
2018-09-20T00:03:16.094Z,24.70
2018-09-20T00:03:51.517Z,20.90
2018-09-20T00:04:26.739Z,19.50
2018-09-20T00:05:02.181Z,20.80
2018-09-20T00:05:37.318Z,21.00
2018-09-20T00:06:12.818Z,17.60
2018-09-20T00:06:48.186Z,20.90
2018-09-20T00:07:23.495Z,26.00
2018-09-20T00:07:58.822Z,20.80
2018-09-20T00:08:34.151Z,19.10
2018-09-20T00:09:09.559Z,25.90
2018-09-20T00:09:45.009Z,24.20
2018-09-20T00:10:20.351Z,19.40
2018-09-20T00:10:55.872Z,20.80
2018-09-20T00:11:31.395Z,20.20
2018-09-20T00:12:06.960Z,20.50
2018-09-20T00:12:42.611Z,17.30
2018-09-20T00:13:17.651Z,15.80
2018-09-20T00:13:52.915Z,15.40
2018-09-20T00:14:28.159Z,18.50
2018-09-20T00:15:03.739Z,24.50
2018-09-20T00:15:39.183Z,22.70
2018-09-20T00:16:14.495Z,19.20
2018-09-20T00:16:49.964Z,22.10
2018-09-20T00:17:25.363Z,20.20
2018-09-20T00:18:00.799Z,17.00
2018-09-20T00:18:36.041Z,19.80
2018-09-20T00:19:11.436Z,14.90
2018-09-20T00:19:46.788Z,12.70
2018-09-20T00:20:22.095Z,18.00
2018-09-20T00:20:57.438Z,21.90
2018-09-20T00:21:32.771Z,18.20
2018-09-20T00:22:08.096Z,18.50
2018-09-20T00:22:43.514Z,18.40
2018-09-20T00:23:18.902Z,22.50
2018-09-20T00:23:54.292Z,21.00
2018-09-20T00:24:29.757Z,20.40
2018-09-20T00:25:05.507Z,19.80
2018-09-20T00:25:40.876Z,17.50
2018-09-20T00:26:16.278Z,19.10
2018-09-20T00:26:51.468Z,22.40
2018-09-20T00:27:27.279Z,22.50
2018-09-20T00:28:02.512Z,16.90
2018-09-20T00:28:37.840Z,17.70
2018-09-20T00:29:13.058Z,16.70
2018-09-20T00:29:48.291Z,18.10
2018-09-20T00:30:23.719Z,16.40
2018-09-20T00:30:58.858Z,22.10
2018-09-20T00:31:34.307Z,21.90
2018-09-20T00:32:09.724Z,22.60
2018-09-20T00:32:45.164Z,22.40
2018-09-20T00:33:20.484Z,18.70
2018-09-20T00:33:56.874Z,17.20
2018-09-20T00:34:32.282Z,22.90
2018-09-20T00:35:07.608Z,27.40
2018-09-20T00:35:43.064Z,24.20
2018-09-20T00:36:18.194Z,21.50
2018-09-20T00:36:53.339Z,21.60
2018-09-20T00:37:28.976Z,26.70
2018-09-20T00:38:04.326Z,27.80
2018-09-20T00:38:39.889Z,21.50
2018-09-20T00:39:15.505Z,23.40
2018-09-20T00:39:50.954Z,22.30
2018-09-20T00:40:26.466Z,23.30
2018-09-20T00:41:01.822Z,21.00
2018-09-20T00:41:37.203Z,22.90
2018-09-20T00:42:12.536Z,22.80
2018-09-20T00:42:47.874Z,27.20
2018-09-20T00:43:23.172Z,27.40
2018-09-20T00:43:58.315Z,25.40
2018-09-20T00:44:33.634Z,23.90
2018-09-20T00:45:08.937Z,24.90
2018-09-20T00:45:44.072Z,31.00
2018-09-20T00:46:19.284Z,30.30
2018-09-20T00:46:54.555Z,23.00
2018-09-20T00:47:29.761Z,24.50
2018-09-20T00:48:04.887Z,31.70
2018-09-20T00:48:40.544Z,35.40
2018-09-20T00:49:16.061Z,33.20
2018-09-20T00:49:51.294Z,32.40
2018-09-20T00:50:26.606Z,32.70
2018-09-20T00:51:01.980Z,27.40
2018-09-20T00:51:37.119Z,30.50
2018-09-20T00:52:12.442Z,24.40
2018-09-20T00:52:47.852Z,24.10
2018-09-20T00:53:22.965Z,31.00
2018-09-20T00:53:58.393Z,25.80
2018-09-20T00:54:33.871Z,25.60
2018-09-20T00:55:09.185Z,28.50
2018-09-20T00:55:44.707Z,26.70
2018-09-20T00:56:20.042Z,26.40
2018-09-20T00:56:55.804Z,28.50
2018-09-20T00:57:31.414Z,21.70
2018-09-20T00:58:06.870Z,27.30
2018-09-20T00:58:42.483Z,31.40
2018-09-20T00:59:18.030Z,29.60
2018-09-20T00:59:53.264Z,30.80
2018-09-20T01:00:28.582Z,29.80
2018-09-20T01:01:04.012Z,24.50
2018-09-20T01:01:39.441Z,22.80
2018-09-20T01:02:14.586Z,26.20
2018-09-20T01:02:50.079Z,23.30
2018-09-20T01:03:25.176Z,23.40
2018-09-20T01:04:00.396Z,29.00
2018-09-20T01:04:35.799Z,26.10
2018-09-20T01:05:11.222Z,26.90
2018-09-20T01:05:46.567Z,27.90
2018-09-20T01:06:22.059Z,31.40
2018-09-20T01:06:57.223Z,26.40
2018-09-20T01:07:32.860Z,25.60
2018-09-20T01:08:08.201Z,27.20
2018-09-20T01:08:43.316Z,25.20
2018-09-20T01:09:18.649Z,22.30
2018-09-20T01:09:53.895Z,24.60
2018-09-20T01:10:28.991Z,23.90
2018-09-20T01:11:04.620Z,20.00
2018-09-20T01:11:39.965Z,22.20
2018-09-20T01:12:15.283Z,26.00
2018-09-20T01:12:50.658Z,26.40
2018-09-20T01:13:25.763Z,22.20
2018-09-20T01:14:01.448Z,22.80
2018-09-20T01:14:36.745Z,25.40
2018-09-20T01:15:11.997Z,23.50
2018-09-20T01:15:47.237Z,21.70
2018-09-20T01:16:22.650Z,28.10
2018-09-20T01:16:58.007Z,22.80
2018-09-20T01:17:33.424Z,17.40
2018-09-20T01:18:08.766Z,20.40
2018-09-20T01:18:44.189Z,26.60
2018-09-20T01:19:19.592Z,24.90
2018-09-20T01:19:55.140Z,22.10
2018-09-20T01:20:30.647Z,28.10
2018-09-20T01:21:05.874Z,25.20
2018-09-20T01:21:41.109Z,25.80
2018-09-20T01:22:16.256Z,23.80
2018-09-20T01:22:51.794Z,17.70
2018-09-20T01:23:27.118Z,22.80
2018-09-20T01:24:02.643Z,21.90
2018-09-20T01:24:37.939Z,23.90
2018-09-20T01:25:13.190Z,23.10
2018-09-20T01:25:48.746Z,25.20
2018-09-20T01:26:23.956Z,24.50
2018-09-20T01:26:59.218Z,23.90
2018-09-20T01:27:34.440Z,20.10
2018-09-20T01:28:09.878Z,22.20
2018-09-20T01:28:45.207Z,23.10
2018-09-20T01:29:20.305Z,21.50
2018-09-20T01:29:55.761Z,18.80
2018-09-20T01:30:31.472Z,23.30
2018-09-20T01:31:06.701Z,27.30
2018-09-20T01:31:42.147Z,24.60
2018-09-20T01:32:17.486Z,20.90
2018-09-20T01:32:52.724Z,18.30
2018-09-20T01:33:28.054Z,23.20
2018-09-20T01:34:03.359Z,20.90
2018-09-20T01:34:38.472Z,24.30
2018-09-20T01:35:13.913Z,18.60
2018-09-20T01:35:49.559Z,20.30
2018-09-20T01:36:25.083Z,20.50
2018-09-20T01:37:00.567Z,22.30
2018-09-20T01:37:35.893Z,22.20
2018-09-20T01:38:10.939Z,17.50
2018-09-20T01:38:46.162Z,17.70
2018-09-20T01:39:21.661Z,22.00
2018-09-20T01:39:56.798Z,26.90
2018-09-20T01:40:32.252Z,21.90
2018-09-20T01:41:07.496Z,20.10
2018-09-20T01:41:42.920Z,20.80
2018-09-20T01:42:18.372Z,19.50
2018-09-20T01:42:53.713Z,21.70
2018-09-20T01:43:29.016Z,21.90
2018-09-20T01:44:04.559Z,21.30
2018-09-20T01:44:39.865Z,16.90
2018-09-20T01:45:15.396Z,18.90
2018-09-20T01:45:50.831Z,21.10
2018-09-20T01:46:26.325Z,23.30
2018-09-20T01:47:01.921Z,20.90
2018-09-20T01:47:37.360Z,17.10
2018-09-20T01:48:12.720Z,18.50
2018-09-20T01:48:48.021Z,19.70
2018-09-20T01:49:23.166Z,23.20
2018-09-20T01:49:58.468Z,22.30
2018-09-20T01:50:33.797Z,20.70
2018-09-20T01:51:09.236Z,21.00
2018-09-20T01:51:44.671Z,24.00
2018-09-20T01:52:19.992Z,27.20
2018-09-20T01:52:55.122Z,22.90
2018-09-20T01:53:30.751Z,21.50
2018-09-20T01:54:06.168Z,22.80
2018-09-20T01:54:41.415Z,23.30
2018-09-20T01:55:16.685Z,21.30
2018-09-20T01:55:52.007Z,20.60
2018-09-20T01:56:27.572Z,22.80
2018-09-20T01:57:03.179Z,24.10
2018-09-20T01:57:38.564Z,27.40
2018-09-20T01:58:13.879Z,24.60
2018-09-20T01:58:48.980Z,18.60
2018-09-20T01:59:24.104Z,20.40
2018-09-20T01:59:59.526Z,24.90
2018-09-20T02:00:34.759Z,25.80
2018-09-20T02:01:09.988Z,19.70
2018-09-20T02:01:45.439Z,17.30
2018-09-20T02:02:21.155Z,19.50
2018-09-20T02:02:56.483Z,23.80
2018-09-20T02:03:31.732Z,27.50
2018-09-20T02:04:07.470Z,25.10
2018-09-20T02:04:42.900Z,25.10
2018-09-20T02:05:18.133Z,21.80
2018-09-20T02:05:53.425Z,20.50
2018-09-20T02:06:28.809Z,23.10
2018-09-20T02:07:04.107Z,27.60
2018-09-20T02:07:39.523Z,24.10
2018-09-20T02:08:14.976Z,20.90
2018-09-20T02:08:50.299Z,20.60
2018-09-20T02:09:25.668Z,20.80
2018-09-20T02:10:01.075Z,22.40
2018-09-20T02:10:36.519Z,19.70
2018-09-20T02:11:11.977Z,14.50
2018-09-20T02:11:47.203Z,22.10
2018-09-20T02:12:22.537Z,24.40
2018-09-20T02:12:58.187Z,19.40
2018-09-20T02:13:33.718Z,18.50
2018-09-20T02:14:09.046Z,18.80
2018-09-20T02:14:44.342Z,18.90
2018-09-20T02:15:19.680Z,16.10
2018-09-20T02:15:55.010Z,13.10
2018-09-20T02:16:30.274Z,21.30
2018-09-20T02:17:05.600Z,22.30
2018-09-20T02:17:41.229Z,18.40
2018-09-20T02:18:16.761Z,18.80
2018-09-20T02:18:52.303Z,18.40
2018-09-20T02:19:27.930Z,20.80
2018-09-20T02:20:03.231Z,21.70
2018-09-20T02:20:38.475Z,25.40
2018-09-20T02:21:13.735Z,17.70
2018-09-20T02:21:48.985Z,18.80
2018-09-20T02:22:24.619Z,20.50
2018-09-20T02:22:59.935Z,19.30
2018-09-20T02:23:34.960Z,22.00
2018-09-20T02:24:10.406Z,24.90
2018-09-20T02:24:46.032Z,22.60
2018-09-20T02:25:21.283Z,24.20
2018-09-20T02:25:56.585Z,21.80
2018-09-20T02:26:31.974Z,21.40
2018-09-20T02:27:07.511Z,19.50
2018-09-20T02:27:42.745Z,23.20
2018-09-20T02:28:17.988Z,26.60
2018-09-20T02:28:53.601Z,28.10
2018-09-20T02:29:28.759Z,23.20
2018-09-20T02:30:04.022Z,23.50
2018-09-20T02:30:39.441Z,25.60
2018-09-20T02:31:14.773Z,19.70
2018-09-20T02:31:50.106Z,19.50
2018-09-20T02:32:25.657Z,19.90
2018-09-20T02:33:00.757Z,21.70
2018-09-20T02:33:36.161Z,20.90
2018-09-20T02:34:11.602Z,22.90
2018-09-20T02:34:47.220Z,20.40
2018-09-20T02:35:22.437Z,18.50
2018-09-20T02:35:57.637Z,22.00
2018-09-20T02:36:32.718Z,21.10
2018-09-20T02:37:08.160Z,16.90
2018-09-20T02:37:43.367Z,19.80
2018-09-20T02:38:18.703Z,20.50
2018-09-20T02:38:54.013Z,22.50
2018-09-20T02:39:29.345Z,20.70
2018-09-20T02:40:04.805Z,22.00
2018-09-20T02:40:40.320Z,21.50
2018-09-20T02:41:15.574Z,18.40
2018-09-20T02:41:50.611Z,22.30
2018-09-20T02:42:26.240Z,22.30
2018-09-20T02:43:01.666Z,19.70
2018-09-20T02:43:37.101Z,23.70
2018-09-20T02:44:12.273Z,23.50
2018-09-20T02:44:47.571Z,23.80
2018-09-20T02:45:22.994Z,20.20
2018-09-20T02:45:58.216Z,19.10
2018-09-20T02:46:33.599Z,23.50
2018-09-20T02:47:09.331Z,20.00
2018-09-20T02:47:44.450Z,17.10
2018-09-20T02:48:20.218Z,18.30
2018-09-20T02:48:55.413Z,22.50
2018-09-20T02:49:30.687Z,24.30
2018-09-20T02:50:06.330Z,23.10
2018-09-20T02:50:41.727Z,19.90
2018-09-20T02:51:17.197Z,19.80
2018-09-20T02:51:52.227Z,20.20
2018-09-20T02:52:27.362Z,26.00
2018-09-20T02:53:02.593Z,18.20
2018-09-20T02:53:37.732Z,15.60
2018-09-20T02:54:13.378Z,29.10
2018-09-20T02:54:48.924Z,26.00
2018-09-20T02:55:24.260Z,22.20
2018-09-20T02:55:59.574Z,22.40
2018-09-20T02:56:34.882Z,22.30
2018-09-20T02:57:10.127Z,20.50
2018-09-20T02:57:45.530Z,24.60
2018-09-20T02:58:20.798Z,19.40
2018-09-20T02:58:56.337Z,18.10
2018-09-20T02:59:31.785Z,19.60
2018-09-20T03:00:07.098Z,20.80
2018-09-20T03:00:42.510Z,19.60
2018-09-20T03:01:17.441Z,20.90
2018-09-20T03:01:52.714Z,18.60
2018-09-20T03:02:28.193Z,23.10
2018-09-20T03:03:03.696Z,24.70
2018-09-20T03:03:39.149Z,21.60
2018-09-20T03:04:14.394Z,19.70
2018-09-20T03:04:49.668Z,18.30
2018-09-20T03:05:25.023Z,19.40
2018-09-20T03:06:00.228Z,20.10
2018-09-20T03:06:35.696Z,18.80
2018-09-20T03:07:11.059Z,17.70
2018-09-20T03:07:46.379Z,22.30
2018-09-20T03:08:21.904Z,24.60
2018-09-20T03:08:57.227Z,18.10
2018-09-20T03:09:32.571Z,16.90
2018-09-20T03:10:08.112Z,19.40
2018-09-20T03:10:43.246Z,20.70
2018-09-20T03:11:18.479Z,25.40
2018-09-20T03:11:53.729Z,27.10
2018-09-20T03:12:29.178Z,27.90
2018-09-20T03:13:04.336Z,22.20
2018-09-20T03:13:39.552Z,20.30
2018-09-20T03:14:15.008Z,25.50
2018-09-20T03:14:50.610Z,29.60
2018-09-20T03:15:25.846Z,26.90
2018-09-20T03:16:01.457Z,24.50
2018-09-20T03:16:36.714Z,27.30
2018-09-20T03:17:12.371Z,20.60
2018-09-20T03:17:47.592Z,28.00
2018-09-20T03:18:22.801Z,30.70
2018-09-20T03:18:58.335Z,25.20
2018-09-20T03:19:33.765Z,27.20
2018-09-20T03:20:09.099Z,30.70
2018-09-20T03:20:44.493Z,29.60
2018-09-20T03:21:19.934Z,23.90
2018-09-20T03:21:55.410Z,23.20
2018-09-20T03:22:30.897Z,28.10
2018-09-20T03:23:06.040Z,33.00
2018-09-20T03:23:41.370Z,26.20
2018-09-20T03:24:16.636Z,30.20
2018-09-20T03:24:52.242Z,24.20
2018-09-20T03:25:27.791Z,24.00
2018-09-20T03:26:03.544Z,32.80
2018-09-20T03:26:39.064Z,34.00
2018-09-20T03:27:14.316Z,31.30
2018-09-20T03:27:49.436Z,34.70
2018-09-20T03:28:25.287Z,34.40
2018-09-20T03:29:00.667Z,24.70
2018-09-20T03:29:36.020Z,26.70
2018-09-20T03:30:11.330Z,36.30
2018-09-20T03:30:46.825Z,31.90
2018-09-20T03:31:22.171Z,21.00
2018-09-20T03:31:57.720Z,25.80
2018-09-20T03:32:33.290Z,28.50
2018-09-20T03:33:08.818Z,27.10
2018-09-20T03:33:44.675Z,25.80
2018-09-20T03:34:20.232Z,32.30
2018-09-20T03:34:55.651Z,34.30
2018-09-20T03:35:31.203Z,32.80
2018-09-20T03:36:06.437Z,30.20
2018-09-20T03:36:41.816Z,28.30
2018-09-20T03:37:16.954Z,24.40
2018-09-20T03:37:52.165Z,28.60
2018-09-20T03:38:27.723Z,27.10
2018-09-20T03:39:03.119Z,27.10
2018-09-20T03:39:38.761Z,29.70
2018-09-20T03:40:13.992Z,24.50
2018-09-20T03:40:49.218Z,27.20
2018-09-20T03:41:24.558Z,26.30
2018-09-20T03:42:00.118Z,25.70
2018-09-20T03:42:35.450Z,31.40
2018-09-20T03:43:10.685Z,28.40
2018-09-20T03:43:46.214Z,23.50
2018-09-20T03:44:21.864Z,26.50
2018-09-20T03:44:57.164Z,29.10
2018-09-20T03:45:32.097Z,25.90
2018-09-20T03:46:07.537Z,23.00
2018-09-20T03:46:43.389Z,29.20
2018-09-20T03:47:18.944Z,28.80
2018-09-20T03:47:54.250Z,27.60
2018-09-20T03:48:29.433Z,29.40
2018-09-20T03:49:04.687Z,27.60
2018-09-20T03:49:40.028Z,21.30
2018-09-20T03:50:15.668Z,34.90
2018-09-20T03:50:51.186Z,34.70
2018-09-20T03:51:26.857Z,20.20
2018-09-20T03:52:02.262Z,20.50
2018-09-20T03:52:37.627Z,24.70
2018-09-20T03:53:13.261Z,22.50
2018-09-20T03:53:48.704Z,27.30
2018-09-20T03:54:24.356Z,26.80
2018-09-20T03:54:59.966Z,24.50
2018-09-20T03:55:35.225Z,23.50
2018-09-20T03:56:10.259Z,24.60
2018-09-20T03:56:45.632Z,23.80
2018-09-20T03:57:21.075Z,23.50
2018-09-20T03:57:56.592Z,24.20
2018-09-20T03:58:31.908Z,23.00
2018-09-20T03:59:07.211Z,26.90
2018-09-20T03:59:42.504Z,28.60
2018-09-20T04:00:17.747Z,22.70
2018-09-20T04:00:53.357Z,27.30
2018-09-20T04:01:28.812Z,26.30
2018-09-20T04:02:04.119Z,21.20
2018-09-20T04:02:39.460Z,21.20
2018-09-20T04:03:15.099Z,23.30
2018-09-20T04:03:50.493Z,21.30
2018-09-20T04:04:25.833Z,19.20
2018-09-20T04:05:01.233Z,22.20
2018-09-20T04:05:36.488Z,24.80
2018-09-20T04:06:11.791Z,22.90
2018-09-20T04:06:47.263Z,22.90
2018-09-20T04:07:22.609Z,21.60
2018-09-20T04:07:57.816Z,19.60
2018-09-20T04:08:33.173Z,18.00
2018-09-20T04:09:08.418Z,21.10
2018-09-20T04:09:43.881Z,22.40
2018-09-20T04:10:19.389Z,20.20
2018-09-20T04:10:54.825Z,22.50
2018-09-20T04:11:30.063Z,21.70
2018-09-20T04:12:05.427Z,18.80
2018-09-20T04:12:40.660Z,18.30
2018-09-20T04:13:16.092Z,26.30
2018-09-20T04:13:51.537Z,22.00
2018-09-20T04:14:26.786Z,24.40
2018-09-20T04:15:01.994Z,22.90
2018-09-20T04:15:37.227Z,19.90
2018-09-20T04:16:12.541Z,20.10
2018-09-20T04:16:47.974Z,18.90
2018-09-20T04:17:23.401Z,19.70
2018-09-20T04:17:59.050Z,24.60
2018-09-20T04:18:34.382Z,24.30
2018-09-20T04:19:09.908Z,19.70
2018-09-20T04:19:45.536Z,19.30
2018-09-20T04:20:20.847Z,24.20
2018-09-20T04:20:55.993Z,22.50
2018-09-20T04:21:31.314Z,25.40
2018-09-20T04:22:06.846Z,24.60
2018-09-20T04:22:42.126Z,19.70
2018-09-20T04:23:17.248Z,21.90
2018-09-20T04:23:52.725Z,24.80
2018-09-20T04:24:27.927Z,20.40
2018-09-20T04:25:03.161Z,19.00
2018-09-20T04:25:38.756Z,21.40
2018-09-20T04:26:15.106Z,23.70
2018-09-20T04:26:50.722Z,23.10
2018-09-20T04:27:26.069Z,24.00
2018-09-20T04:28:01.419Z,27.70
2018-09-20T04:28:36.775Z,30.40
2018-09-20T04:29:12.298Z,21.90
2018-09-20T04:29:47.568Z,19.10
2018-09-20T04:30:22.692Z,19.60
2018-09-20T04:30:58.209Z,23.70
2018-09-20T04:31:33.531Z,26.30
2018-09-20T04:32:08.980Z,31.10
2018-09-20T04:32:44.274Z,31.40
2018-09-20T04:33:19.674Z,30.90
2018-09-20T04:33:55.009Z,32.40
2018-09-20T04:34:30.346Z,32.30
2018-09-20T04:35:05.736Z,32.40
2018-09-20T04:35:40.989Z,33.30
2018-09-20T04:36:16.402Z,37.70
2018-09-20T04:36:51.581Z,38.20
2018-09-20T04:37:26.828Z,38.30
2018-09-20T04:38:01.946Z,32.40
2018-09-20T04:38:37.229Z,29.30
2018-09-20T04:39:12.370Z,27.40
2018-09-20T04:39:47.778Z,38.30
2018-09-20T04:40:23.340Z,37.90
2018-09-20T04:40:58.439Z,29.90
2018-09-20T04:41:33.661Z,33.40
2018-09-20T04:42:09.247Z,37.20
2018-09-20T04:42:44.768Z,35.30
2018-09-20T04:43:20.391Z,29.40
2018-09-20T04:43:55.539Z,32.90
2018-09-20T04:44:31.383Z,29.70
2018-09-20T04:45:06.990Z,28.40
2018-09-20T04:45:42.573Z,29.30
2018-09-20T04:46:17.599Z,30.10
2018-09-20T04:46:53.091Z,31.70
2018-09-20T04:47:28.193Z,31.20
2018-09-20T04:48:03.891Z,34.10
2018-09-20T04:48:39.509Z,30.50
2018-09-20T04:49:14.973Z,33.40
2018-09-20T04:49:50.292Z,28.50
2018-09-20T04:50:25.543Z,27.60
2018-09-20T04:51:00.688Z,29.90
2018-09-20T04:51:36.131Z,33.30
2018-09-20T04:52:11.491Z,30.90
2018-09-20T04:52:46.892Z,25.30
2018-09-20T04:53:22.437Z,25.00
2018-09-20T04:53:57.763Z,31.10
2018-09-20T04:54:33.214Z,32.80
2018-09-20T04:55:08.538Z,35.30
2018-09-20T04:55:44.103Z,34.10
2018-09-20T04:56:19.426Z,32.60
2018-09-20T04:56:54.885Z,34.40
2018-09-20T04:57:30.483Z,29.50
2018-09-20T04:58:06.142Z,28.00
2018-09-20T04:58:41.939Z,28.80
2018-09-20T04:59:17.276Z,23.80
2018-09-20T04:59:52.572Z,27.30
2018-09-20T05:00:28.162Z,36.50
2018-09-20T05:01:03.471Z,34.50
2018-09-20T05:01:38.940Z,29.90
2018-09-20T05:02:14.291Z,32.90
2018-09-20T05:02:49.485Z,33.90
2018-09-20T05:03:24.549Z,33.00
2018-09-20T05:04:00.016Z,28.60
2018-09-20T05:04:35.272Z,27.80
2018-09-20T05:05:10.419Z,26.00
2018-09-20T05:05:46.576Z,32.00
2018-09-20T05:06:21.889Z,32.40
2018-09-20T05:06:57.262Z,30.20
2018-09-20T05:07:32.497Z,36.30
2018-09-20T05:08:08.056Z,33.80
2018-09-20T05:08:43.370Z,31.90
2018-09-20T05:09:20.150Z,36.00
2018-09-20T05:09:55.404Z,37.60
2018-09-20T05:10:30.909Z,34.90
2018-09-20T05:11:06.430Z,29.30
2018-09-20T05:11:41.800Z,26.10
2018-09-20T05:12:17.010Z,26.70
2018-09-20T05:12:52.559Z,32.60
2018-09-20T05:13:28.257Z,31.20
2018-09-20T05:14:03.395Z,30.40
2018-09-20T05:14:38.712Z,29.00
2018-09-20T05:15:14.633Z,31.00
2018-09-20T05:15:50.208Z,29.60
2018-09-20T05:16:25.345Z,30.70
2018-09-20T05:19:40.010Z,33.90
2018-09-20T05:22:55.570Z,29.30
2018-09-20T05:26:10.975Z,30.00
2018-09-20T05:26:46.309Z,25.30
2018-09-20T05:27:21.597Z,32.50
2018-09-20T05:27:57.257Z,38.20
2018-09-20T05:28:32.345Z,34.20
2018-09-20T05:31:09.861Z,33.90
2018-09-20T05:31:46.795Z,39.10
2018-09-20T05:32:22.542Z,31.90
2018-09-20T05:32:57.540Z,22.40
2018-09-20T05:33:32.896Z,35.30
2018-09-20T05:34:08.425Z,37.70
2018-09-20T05:37:22.806Z,39.40
2018-09-20T05:37:58.007Z,35.20
2018-09-20T05:38:33.761Z,24.80
2018-09-20T05:39:09.487Z,30.30
2018-09-20T05:39:44.899Z,36.90
2018-09-20T05:40:20.245Z,39.40
2018-09-20T05:40:55.329Z,31.70
2018-09-20T05:41:30.697Z,26.70
2018-09-20T05:42:06.386Z,32.20
2018-09-20T05:42:41.829Z,31.20
2018-09-20T05:43:17.124Z,30.00
2018-09-20T05:43:52.478Z,27.20
2018-09-20T05:44:27.942Z,29.30
2018-09-20T05:45:03.369Z,29.90
2018-09-20T05:45:38.710Z,31.10
2018-09-20T05:46:14.470Z,29.50
2018-09-20T05:46:49.759Z,33.70
2018-09-20T05:47:25.544Z,28.70
2018-09-20T05:48:00.975Z,26.80
2018-09-20T05:48:36.254Z,31.70
2018-09-20T05:49:12.521Z,34.20
2018-09-20T05:49:47.967Z,33.30
2018-09-20T05:50:23.645Z,29.70
2018-09-20T05:50:59.068Z,36.10
2018-09-20T05:51:34.631Z,30.40
2018-09-20T05:52:10.143Z,29.50
2018-09-20T05:52:45.666Z,29.70
2018-09-20T05:53:21.255Z,36.90
2018-09-20T05:53:56.935Z,34.40
2018-09-20T05:54:32.605Z,31.80
2018-09-20T05:55:08.005Z,32.60
2018-09-20T05:55:43.029Z,27.20
2018-09-20T05:56:18.929Z,27.40
2018-09-20T05:56:54.509Z,33.30
2018-09-20T05:57:29.835Z,34.90
2018-09-20T05:58:05.179Z,34.40
2018-09-20T05:58:41.064Z,36.40
2018-09-20T05:59:16.842Z,33.60
2018-09-20T05:59:52.230Z,30.50
2018-09-20T06:00:27.803Z,32.20
2018-09-20T06:01:03.223Z,28.50
2018-09-20T06:01:38.644Z,37.90
2018-09-20T06:02:14.215Z,35.20
2018-09-20T06:02:49.627Z,30.20
2018-09-20T06:03:25.479Z,34.10
2018-09-20T06:04:00.984Z,36.10
2018-09-20T06:04:36.608Z,32.10
2018-09-20T06:05:11.934Z,34.20
2018-09-20T06:05:46.982Z,33.00
2018-09-20T06:06:22.205Z,33.50
2018-09-20T06:06:57.388Z,32.10
2018-09-20T06:07:32.925Z,31.10
2018-09-20T06:08:08.210Z,34.10
2018-09-20T06:08:43.664Z,36.80
2018-09-20T06:09:19.086Z,34.60
2018-09-20T06:09:54.320Z,33.20
2018-09-20T06:10:29.643Z,26.30
2018-09-20T06:11:04.967Z,25.00
2018-09-20T06:11:40.347Z,29.40
2018-09-20T06:12:15.581Z,26.40
2018-09-20T06:12:50.795Z,32.90
2018-09-20T06:13:26.184Z,33.90
2018-09-20T06:14:01.529Z,32.20
2018-09-20T06:14:36.945Z,29.40
2018-09-20T06:15:12.483Z,23.90
2018-09-20T06:15:48.016Z,30.00
2018-09-20T06:16:23.691Z,30.70
2018-09-20T06:16:58.914Z,33.70
2018-09-20T06:17:34.438Z,41.80
2018-09-20T06:18:09.639Z,30.10
2018-09-20T06:18:45.297Z,24.70
2018-09-20T06:19:20.520Z,27.50
2018-09-20T06:19:55.858Z,30.40
2018-09-20T06:20:31.375Z,29.00
2018-09-20T06:21:06.742Z,25.50
2018-09-20T06:21:42.201Z,32.60
2018-09-20T06:22:17.648Z,27.40
2018-09-20T06:22:52.853Z,24.10
2018-09-20T06:23:28.111Z,27.60
2018-09-20T06:24:03.298Z,24.20
2018-09-20T06:24:38.759Z,23.20
2018-09-20T06:25:14.116Z,22.70
2018-09-20T06:25:49.530Z,29.80
2018-09-20T06:26:24.858Z,30.70
2018-09-20T06:27:00.156Z,22.90
2018-09-20T06:27:35.429Z,27.50
2018-09-20T06:28:10.967Z,25.40
2018-09-20T06:28:46.408Z,24.70
2018-09-20T06:29:21.728Z,22.90
2018-09-20T06:29:57.269Z,17.70
2018-09-20T06:30:32.676Z,22.50
2018-09-20T06:31:07.820Z,27.90
2018-09-20T06:31:43.543Z,23.40
2018-09-20T06:32:18.875Z,22.80
2018-09-20T06:32:54.299Z,25.10
2018-09-20T06:33:29.692Z,32.30
2018-09-20T06:34:05.095Z,29.70
2018-09-20T06:34:40.538Z,29.00
2018-09-20T06:35:15.717Z,26.60
2018-09-20T06:35:51.024Z,29.80
2018-09-20T06:36:26.157Z,29.60
2018-09-20T06:37:01.480Z,22.60
2018-09-20T06:37:36.582Z,20.20
2018-09-20T06:38:11.880Z,25.10
2018-09-20T06:38:47.220Z,25.30
2018-09-20T06:39:22.707Z,18.10
2018-09-20T06:39:58.139Z,24.50
2018-09-20T06:40:33.711Z,25.70
2018-09-20T06:41:09.284Z,23.00
2018-09-20T06:41:44.584Z,23.00
2018-09-20T06:42:19.911Z,25.40
2018-09-20T06:42:55.213Z,21.90
2018-09-20T06:43:30.871Z,22.50
2018-09-20T06:44:06.240Z,26.80
2018-09-20T06:44:41.657Z,29.10
2018-09-20T06:45:16.957Z,25.80
2018-09-20T06:45:52.350Z,19.00
2018-09-20T06:46:27.490Z,21.20
2018-09-20T06:47:02.818Z,22.80
2018-09-20T06:47:38.321Z,18.80
2018-09-20T06:48:13.637Z,22.60
2018-09-20T06:48:48.870Z,23.80
2018-09-20T06:49:24.579Z,23.10
2018-09-20T06:49:59.773Z,22.80
2018-09-20T06:50:35.095Z,23.60
2018-09-20T06:51:10.243Z,18.30
2018-09-20T06:51:45.629Z,17.00
2018-09-20T06:52:20.992Z,17.80
2018-09-20T06:52:56.328Z,20.50
2018-09-20T06:53:31.786Z,19.80
2018-09-20T06:54:07.244Z,17.00
2018-09-20T06:54:42.523Z,16.30
2018-09-20T06:55:17.846Z,19.80
2018-09-20T06:55:53.350Z,20.90
2018-09-20T06:56:28.693Z,18.90
2018-09-20T06:57:03.959Z,23.70
2018-09-20T06:57:39.299Z,18.10
2018-09-20T06:58:14.488Z,17.10
2018-09-20T06:58:49.831Z,23.80
2018-09-20T06:59:25.115Z,24.00
2018-09-20T07:00:00.437Z,22.10
2018-09-20T07:00:36.140Z,23.30
2018-09-20T07:01:12.050Z,23.00
2018-09-20T07:01:47.395Z,24.00
2018-09-20T07:02:22.837Z,22.70
2018-09-20T07:02:58.289Z,19.40
2018-09-20T07:03:33.557Z,17.40
2018-09-20T07:04:08.818Z,20.40
2018-09-20T07:04:44.049Z,18.20
2018-09-20T07:05:19.347Z,19.40
2018-09-20T07:05:54.665Z,21.10
2018-09-20T07:06:30.295Z,21.20
2018-09-20T07:07:05.848Z,22.10
2018-09-20T07:07:41.254Z,22.30
2018-09-20T07:08:16.690Z,16.80
2018-09-20T07:08:51.988Z,20.00
2018-09-20T07:09:27.413Z,19.00
2018-09-20T07:10:02.795Z,23.20
2018-09-20T07:10:38.358Z,27.80
2018-09-20T07:11:13.713Z,23.00
2018-09-20T07:11:49.139Z,21.50
2018-09-20T07:12:24.585Z,21.50
2018-09-20T07:13:00.030Z,18.70
2018-09-20T07:13:35.666Z,22.10
2018-09-20T07:14:10.984Z,24.00
2018-09-20T07:14:46.447Z,18.80
2018-09-20T07:15:21.667Z,18.30
2018-09-20T07:15:56.952Z,17.00
2018-09-20T07:16:32.199Z,16.00
2018-09-20T07:17:07.710Z,18.90
2018-09-20T07:17:42.970Z,18.60
2018-09-20T07:18:18.400Z,20.30
2018-09-20T07:18:53.846Z,19.30
2018-09-20T07:19:29.104Z,14.00
2018-09-20T07:20:04.167Z,19.60
2018-09-20T07:20:39.581Z,21.90
2018-09-20T07:21:14.792Z,20.70
2018-09-20T07:21:50.299Z,21.10
2018-09-20T07:22:25.820Z,17.10
2018-09-20T07:23:01.270Z,17.50
2018-09-20T07:23:36.661Z,20.70
2018-09-20T07:24:12.108Z,17.50
2018-09-20T07:24:48.135Z,17.70
2018-09-20T07:25:23.426Z,19.00
2018-09-20T07:25:58.801Z,16.00
2018-09-20T07:26:34.163Z,18.50
2018-09-20T07:27:09.769Z,16.20
2018-09-20T07:27:45.100Z,19.20
2018-09-20T07:28:20.559Z,23.20
2018-09-20T07:28:55.829Z,18.30
2018-09-20T07:29:31.237Z,17.90
2018-09-20T07:30:06.832Z,17.70
2018-09-20T07:30:42.160Z,18.20
2018-09-20T07:31:17.481Z,18.70
2018-09-20T07:31:53.204Z,17.30
2018-09-20T07:32:28.711Z,17.50
2018-09-20T07:33:04.028Z,18.60
2018-09-20T07:33:39.405Z,18.00
2018-09-20T07:34:14.631Z,18.20
2018-09-20T07:34:50.163Z,13.90
2018-09-20T07:35:25.492Z,12.70
2018-09-20T07:36:00.946Z,10.80
2018-09-20T07:36:36.555Z,17.10
2018-09-20T07:37:12.003Z,15.30
2018-09-20T07:37:47.624Z,12.70
2018-09-20T07:38:22.859Z,15.30
2018-09-20T07:38:58.426Z,16.40
2018-09-20T07:39:33.872Z,16.60
2018-09-20T07:40:09.628Z,17.60
2018-09-20T07:40:44.957Z,14.20
2018-09-20T07:41:20.456Z,12.70
2018-09-20T07:41:56.080Z,14.20
2018-09-20T07:42:31.583Z,14.10
2018-09-20T07:43:06.712Z,14.40
2018-09-20T07:43:42.208Z,16.10
2018-09-20T07:44:17.423Z,13.80
2018-09-20T07:44:52.659Z,17.10
2018-09-20T07:45:28.307Z,16.20
2018-09-20T07:46:03.826Z,10.70
2018-09-20T07:46:39.281Z,13.90
2018-09-20T07:47:14.690Z,14.20
2018-09-20T07:47:49.920Z,14.30
2018-09-20T07:48:25.165Z,14.00